KGJT/GJT METAR and TAF weather

Enter ICAO airport designator
Station Type Date Time Source
KGJT METAR 2019/12/06 13:53 UTC NOAA

KGJT 061353Z 11007KT 10SM BKN055 M01/M03 A3034 RMK AO2 SLP285 T10061028


Station Type Date Time Source
KGJT Decoded METAR 2019/12/06 13:53 UTC NOAA

GRAND JUNCTION WALKER FIELD, CO, United States (KGJT) 39-08N 108-32W 1452M
Dec 06, 2019 - 08:53 AM EST / 2019.12.06 1353 UTC
Wind: from the ESE (110 degrees) at 8 MPH (7 KT):0
Visibility: 10 mile(s):0
Sky conditions: mostly cloudy
Temperature: 30.9 F (-0.6 C)
Windchill: 23 F (-5 C):1
Dew Point: 27.0 F (-2.8 C)
Relative Humidity: 85%
Pressure (altimeter): 30.34 in. Hg (1027 hPa)
ob: KGJT 061353Z 11007KT 10SM BKN055 M01/M03 A3034 RMK AO2 SLP285 T10061028
cycle: 14

Station Type Date Time Source
KGJT TAF 2019/12/06 12:33 UTC NOAA

TAF KGJT 061129Z 0612/0712 VRB03KT P6SM FEW050 SCT100
FM061400 VRB04KT P6SM FEW050 SCT180
FM062300 00000KT P6SM FEW070
FM070800 VRB03KT P6SM FEW120 FEW200

Example: see airport list